Time;durP1;ratioP1;P1;durP2;ratioP2;P2;SDS_P1;SDS_P2;PMS_P1;PMS_P2;Temp;Humidity;BMP_temperature;BMP_pressure;BME280_temperature;BME280_humidity;BME280_pressure;Samples;Min_cycle;Max_cycle;Signal;HPM_P1;HPM_P2
2022/01/19 00:00:10;;;;;;;17.77;12.00;;;;;;;1.39;100.00;102941.19;5090359;27;20047;-72
2022/01/19 00:02:36;;;;;;;20.33;11.73;;;;;;;1.42;100.00;102941.16;5059383;28;20044;-73
2022/01/19 00:05:03;;;;;;;19.52;9.82;;;;;;;1.38;100.00;102940.34;5060817;28;20041;-73
2022/01/19 00:07:30;;;;;;;14.00;9.10;;;;;;;1.29;100.00;102947.28;5058664;28;20044;-72
2022/01/19 00:10:02;;;;;;;15.35;8.48;;;;;;;1.19;100.00;102936.13;5058118;28;20041;-71
2022/01/19 00:12:30;;;;;;;;;;;;;;;1.21;100.00;102942.16;5063988;28;20161;-74
2022/01/19 00:14:57;;;;;;;11.07;5.93;;;;;;;1.14;100.00;102939.63;5067300;28;19950;-73
2022/01/19 00:17:23;;;;;;;13.02;7.57;;;;;;;1.05;100.00;102943.13;5076484;28;20085;-72
2022/01/19 00:19:52;;;;;;;12.60;6.70;;;;;;;1.05;100.00;102944.84;5081920;28;20032;-70
2022/01/19 00:22:19;;;;;;;13.38;6.40;;;;;;;1.02;100.00;102937.97;5071834;28;20121;-72
2022/01/19 00:24:45;;;;;;;13.10;6.03;;;;;;;1.14;100.00;102929.25;5059178;28;20047;-71
2022/01/19 00:27:12;;;;;;;9.82;7.72;;;;;;;1.07;100.00;102923.25;5054056;28;20132;-71
2022/01/19 00:29:40;;;;;;;10.32;5.78;;;;;;;1.10;100.00;102902.53;5052773;28;20040;-72
2022/01/19 00:32:07;;;;;;;10.02;4.85;;;;;;;1.07;100.00;102883.59;5053392;28;20127;-72
2022/01/19 00:34:34;;;;;;;12.23;6.00;;;;;;;1.06;100.00;102881.88;5054887;28;20499;-73
2022/01/19 00:37:01;;;;;;;10.23;6.00;;;;;;;1.08;100.00;102865.47;5057972;28;20153;-72
2022/01/19 00:39:31;;;;;;;11.77;4.85;;;;;;;1.15;100.00;102861.09;5054154;28;20796;-72
2022/01/19 00:41:57;;;;;;;9.52;5.72;;;;;;;1.31;100.00;102862.72;5054655;28;20131;-73
2022/01/19 00:44:24;;;;;;;13.93;6.28;;;;;;;1.35;100.00;102872.19;5054698;28;20048;-71
2022/01/19 00:46:52;;;;;;;19.50;6.97;;;;;;;1.27;100.00;102886.91;5050868;28;20079;-72
2022/01/19 00:49:18;;;;;;;9.70;5.65;;;;;;;1.24;100.00;102884.34;5051078;28;20088;-73
2022/01/19 00:51:45;;;;;;;9.50;5.30;;;;;;;1.19;100.00;102879.19;5053262;28;20055;-73
2022/01/19 00:54:12;;;;;;;16.15;5.45;;;;;;;1.12;100.00;102876.66;5051481;28;20726;-73
2022/01/19 00:56:38;;;;;;;14.77;5.72;;;;;;;1.01;100.00;102884.50;5054171;28;20126;-72
2022/01/19 00:59:05;;;;;;;10.35;6.45;;;;;;;0.96;100.00;102886.25;5057690;28;20047;-71
2022/01/19 01:01:32;;;;;;;22.00;6.68;;;;;;;0.90;100.00;102888.00;5058093;28;20289;-73
2022/01/19 01:04:00;;;;;;;12.10;5.63;;;;;;;0.86;100.00;102884.59;5053260;28;20047;-73
2022/01/19 01:06:26;;;;;;;14.35;5.75;;;;;;;0.86;100.00;102881.16;5050652;28;20046;-71
2022/01/19 01:08:53;;;;;;;9.93;6.03;;;;;;;0.81;100.00;102885.47;5049885;28;20127;-73
2022/01/19 01:11:28;;;;;;;9.77;6.05;;;;;;;0.76;100.00;102868.25;5050630;28;20269;-72
2022/01/19 01:16:51;;;;;;;35.67;7.88;;;;;;;0.80;100.00;102857.88;5051890;28;20052;-74
2022/01/19 01:19:19;;;;;;;9.07;5.18;;;;;;;0.72;100.00;102867.41;5052430;28;20044;-75
2022/01/19 01:21:45;;;;;;;8.38;4.38;;;;;;;0.58;100.00;102861.47;5050879;28;20040;-73
2022/01/19 01:24:13;;;;;;;15.05;6.40;;;;;;;0.51;100.00;102843.38;5052729;28;20044;-73
2022/01/19 01:26:40;;;;;;;8.90;4.03;;;;;;;0.41;100.00;102841.75;5050815;28;20052;-72
2022/01/19 01:29:07;;;;;;;6.40;4.47;;;;;;;0.37;100.00;102840.88;5054591;28;20079;-72
2022/01/19 01:35:05;;;;;;;9.05;6.05;;;;;;;0.34;100.00;102819.34;5060567;28;20406;-75
2022/01/19 01:37:32;;;;;;;10.02;5.68;;;;;;;0.32;100.00;102798.69;5047464;28;20425;-73
2022/01/19 01:40:01;;;;;;;14.73;6.95;;;;;;;0.28;100.00;102784.06;5048198;28;20037;-71
2022/01/19 01:42:27;;;;;;;13.63;6.57;;;;;;;0.35;100.00;102784.88;5045009;28;20045;-73
2022/01/19 01:44:58;;;;;;;11.68;7.15;;;;;;;0.35;100.00;102785.75;5049893;28;20052;-72
2022/01/19 01:47:26;;;;;;;6.95;5.40;;;;;;;0.44;100.00;102790.88;5048487;28;20044;-72
2022/01/19 01:55:34;;;;;;;13.77;5.13;;;;;;;0.44;100.00;102783.13;5047714;28;20106;-73
2022/01/19 01:58:02;;;;;;;10.10;4.53;;;;;;;0.41;100.00;102769.38;5045408;28;20150;-72
2022/01/19 02:00:28;;;;;;;6.88;4.57;;;;;;;0.35;100.00;102782.31;5046331;28;20179;-73
2022/01/19 02:05:44;;;;;;;13.02;4.90;;;;;;;0.32;100.00;102772.84;5030680;28;20143;-72
2022/01/19 02:08:20;;;;;;;15.63;5.75;;;;;;;0.37;100.00;102770.22;5025717;28;20180;-72
2022/01/19 02:11:08;;;;;;;9.00;5.95;;;;;;;0.26;100.00;102780.63;5033027;28;20037;-74
2022/01/19 02:16:31;;;;;;;8.27;4.50;;;;;;;0.39;100.00;102751.25;5038626;28;20045;-74
2022/01/19 02:21:58;;;;;;;6.00;4.20;;;;;;;0.35;100.00;102728.91;5022055;28;20132;-72
2022/01/19 02:24:29;;;;;;;15.02;5.60;;;;;;;0.27;100.00;102729.78;5021276;28;20048;-73
2022/01/19 02:27:04;;;;;;;5.95;4.30;;;;;;;0.15;100.00;102735.91;5025329;28;20055;-72
2022/01/19 02:40:51;;;;;;;7.07;5.40;;;;;;;-0.06;100.00;102698.13;5018146;28;20057;-73
2022/01/19 02:43:23;;;;;;;14.75;3.85;;;;;;;-0.12;100.00;102690.41;5019745;28;20116;-72
2022/01/19 02:51:19;;;;;;;5.15;3.58;;;;;;;-0.06;100.00;102656.81;5015578;28;20046;-73
2022/01/19 02:53:48;;;;;;;6.65;4.20;;;;;;;0.07;100.00;102655.00;5017541;28;20046;-73
2022/01/19 02:56:21;;;;;;;10.57;5.25;;;;;;;0.03;100.00;102648.13;5017832;28;20045;-75
2022/01/19 02:58:51;;;;;;;12.85;6.57;;;;;;;-0.08;100.00;102641.28;5019944;28;20496;-72
2022/01/19 03:09:34;;;;;;;4.18;3.38;;;;;;;-0.25;100.00;102619.03;5020689;28;20049;-73
2022/01/19 03:12:00;;;;;;;7.35;3.10;;;;;;;-0.42;100.00;102615.66;5022036;28;20052;-73
2022/01/19 03:14:27;;;;;;;3.92;3.08;;;;;;;-0.47;100.00;102622.59;5016619;28;20052;-73
2022/01/19 03:16:53;;;;;;;7.30;3.78;;;;;;;-0.54;100.00;102605.44;5004402;28;20041;-73
2022/01/19 03:19:20;;;;;;;4.50;3.58;;;;;;;-0.48;100.00;102615.72;5005451;28;20040;-73
2022/01/19 03:21:46;;;;;;;11.18;4.03;;;;;;;-0.38;100.00;102617.38;5005552;28;20397;-74
2022/01/19 03:24:13;;;;;;;13.27;3.80;;;;;;;-0.27;100.00;102618.16;5006175;28;20042;-72
2022/01/19 03:26:41;;;;;;;5.68;3.80;;;;;;;-0.25;100.00;102609.56;5005196;28;20140;-74
2022/01/19 03:29:08;;;;;;;3.72;2.92;;;;;;;-0.26;100.00;102596.66;5005913;28;20065;-74
2022/01/19 03:31:34;;;;;;;6.00;3.78;;;;;;;-0.26;100.00;102586.31;5007924;28;20064;-73
2022/01/19 03:34:01;;;;;;;12.15;2.83;;;;;;;-0.24;100.00;102600.09;5005293;28;20045;-73
2022/01/19 03:36:28;;;;;;;10.07;4.35;;;;;;;-0.22;100.00;102588.03;5004780;28;20107;-72
2022/01/19 03:38:55;;;;;;;4.28;3.33;;;;;;;-0.13;100.00;102588.81;5005452;28;20107;-72
2022/01/19 03:41:21;;;;;;;13.38;3.60;;;;;;;-0.02;100.00;102585.31;5006733;28;20058;-73
2022/01/19 03:43:50;;;;;;;3.97;2.92;;;;;;;0.12;100.00;102578.28;5005457;28;20104;-73
2022/01/19 03:50:07;;;;;;;8.98;3.70;;;;;;;0.25;100.00;102582.50;5087006;27;20161;-73
2022/01/19 03:52:35;;;;;;;8.95;5.22;;;;;;;0.20;100.00;102576.53;5065990;28;20059;-71
2022/01/19 03:55:02;;;;;;;7.05;4.13;;;;;;;0.19;100.00;102574.81;5068227;28;20052;-73
2022/01/19 04:00:42;;;;;;;10.30;3.58;;;;;;;0.40;100.00;102556.53;5045675;27;20724;-72
2022/01/19 04:03:11;;;;;;;4.55;3.05;;;;;;;0.66;100.00;102553.72;5035992;28;20041;-73
2022/01/19 04:05:43;;;;;;;4.60;3.33;;;;;;;0.71;100.00;102547.59;5057547;28;20071;-71
2022/01/19 04:08:10;;;;;;;;;;;;;;;0.92;100.00;102547.38;5060200;28;20043;-70
2022/01/19 04:10:37;;;;;;;4.45;2.95;;;;;;;1.06;100.00;102548.06;5048021;28;19963;-74
2022/01/19 04:13:12;;;;;;;6.93;3.22;;;;;;;1.29;100.00;102538.28;5038893;28;20052;-72
2022/01/19 04:15:40;;;;;;;12.27;3.95;;;;;;;1.35;100.00;102527.88;5029235;28;20047;-74
2022/01/19 04:18:06;;;;;;;4.72;2.25;;;;;;;1.42;100.00;102534.69;5027825;28;20060;-73
2022/01/19 04:20:41;;;;;;;6.72;3.47;;;;;;;1.61;100.00;102527.47;5028649;28;20042;-73
2022/01/19 04:23:08;;;;;;;11.35;5.15;;;;;;;1.73;100.00;102532.47;5029332;28;20056;-72
2022/01/19 04:25:34;;;;;;;6.82;3.85;;;;;;;1.87;100.00;102530.53;5030247;28;20049;-75
2022/01/19 04:28:07;;;;;;;6.57;4.53;;;;;;;1.87;100.00;102533.13;5032272;28;20064;-71
2022/01/19 04:30:35;;;;;;;6.78;4.78;;;;;;;1.90;100.00;102530.50;5034915;28;20356;-72
2022/01/19 04:33:08;;;;;;;11.32;5.55;;;;;;;1.94;100.00;102514.00;5032440;28;20045;-71
2022/01/19 04:35:44;;;;;;;5.60;3.42;;;;;;;1.98;100.00;102515.69;5029470;28;20049;-71
2022/01/19 05:03:24;;;;;;;13.05;6.70;;;;;;;2.00;100.00;102513.06;5035773;28;20052;-73
2022/01/19 05:05:57;;;;;;;12.10;5.47;;;;;;;2.04;100.00;102497.44;5040473;28;20146;-73
2022/01/19 05:08:43;;;;;;;12.93;7.57;;;;;;;2.06;100.00;102495.69;5055668;28;20490;-73
2022/01/19 05:13:54;;;;;;;12.98;6.78;;;;;;;2.09;100.00;102485.28;5022896;28;20127;-72
2022/01/19 05:16:20;;;;;;;10.52;6.05;;;;;;;2.09;100.00;102485.28;5046581;28;20049;-72
2022/01/19 05:18:47;;;;;;;14.73;6.65;;;;;;;2.05;100.00;102482.75;5013842;28;20049;-72
2022/01/19 05:21:16;;;;;;;12.18;4.80;;;;;;;2.14;100.00;102482.56;5024071;28;20049;-73
2022/01/19 05:23:45;;;;;;;7.43;5.43;;;;;;;2.06;100.00;102468.88;5029467;28;20054;-72
2022/01/19 05:26:13;;;;;;;11.13;6.55;;;;;;;2.07;100.00;102473.19;5017050;28;20134;-72
2022/01/19 05:28:40;;;;;;;8.82;5.40;;;;;;;2.08;100.00;102473.19;5016685;28;20048;-73
2022/01/19 05:31:07;;;;;;;6.63;5.05;;;;;;;2.10;100.00;102471.41;5019200;28;20142;-73
2022/01/19 05:33:34;;;;;;;6.38;4.47;;;;;;;2.15;100.00;102472.19;5016034;28;20064;-72
2022/01/19 05:36:01;;;;;;;7.57;6.30;;;;;;;2.17;100.00;102473.03;5015628;28;20041;-73
2022/01/19 05:38:29;;;;;;;11.65;6.03;;;;;;;2.23;100.00;102480.69;5015737;28;20037;-72
2022/01/19 05:40:55;;;;;;;8.98;6.20;;;;;;;2.27;100.00;102471.97;5014316;28;20057;-73
2022/01/19 05:43:22;;;;;;;7.22;5.00;;;;;;;2.29;100.00;102472.78;5016145;28;20045;-73
2022/01/19 05:45:49;;;;;;;7.18;4.72;;;;;;;2.28;100.00;102465.91;5026770;28;20687;-72
2022/01/19 05:48:15;;;;;;;12.25;6.80;;;;;;;2.36;100.00;102463.19;5018201;28;21064;-73
2022/01/19 05:50:42;;;;;;;15.10;5.32;;;;;;;2.39;100.00;102469.16;5018012;28;20132;-73
2022/01/19 05:53:09;;;;;;;7.05;4.15;;;;;;;2.41;100.00;102470.00;5048382;28;20045;-76
2022/01/19 05:55:37;;;;;;;5.00;3.72;;;;;;;2.49;100.00;102465.53;5021084;28;20054;-72
2022/01/19 05:58:04;;;;;;;8.48;4.90;;;;;;;2.54;100.00;102468.88;5021085;28;20039;-73
2022/01/19 06:00:31;;;;;;;6.57;5.05;;;;;;;2.57;100.00;102474.84;5026518;28;20072;-74
2022/01/19 06:02:58;;;;;;;10.23;6.25;;;;;;;2.58;100.00;102465.34;5039306;28;20033;-74
2022/01/19 06:05:25;;;;;;;5.50;4.90;;;;;;;2.64;100.00;102471.25;5035801;28;20049;-74
2022/01/19 06:08:08;;;;;;;6.50;4.60;;;;;;;2.60;100.00;102460.97;5025096;28;20051;-72
2022/01/19 06:10:46;;;;;;;7.70;5.97;;;;;;;2.62;100.00;102462.66;5018480;28;20049;-73
2022/01/19 06:13:16;;;;;;;4.32;3.53;;;;;;;2.68;100.00;102459.06;5013027;28;20072;-74
2022/01/19 06:15:44;;;;;;;8.63;6.40;;;;;;;2.67;100.00;102452.16;5013105;28;20059;-73
2022/01/19 06:18:11;;;;;;;5.20;4.65;;;;;;;2.66;100.00;102450.50;5015765;28;20152;-72
2022/01/19 06:20:39;;;;;;;8.77;5.53;;;;;;;2.64;100.00;102453.09;5012478;28;20140;-72
2022/01/19 06:23:06;;;;;;;8.80;5.55;;;;;;;2.70;100.00;102455.59;5014890;28;20073;-73
2022/01/19 06:25:33;;;;;;;5.50;4.07;;;;;;;2.78;100.00;102458.88;5012630;28;20046;-73
2022/01/19 06:28:01;;;;;;;8.80;5.32;;;;;;;2.79;100.00;102454.53;5011122;28;20113;-72
2022/01/19 06:30:27;;;;;;;10.48;5.40;;;;;;;2.77;100.00;102445.91;5013619;28;20055;-72
2022/01/19 06:32:54;;;;;;;10.25;6.60;;;;;;;2.81;100.00;102442.38;5014525;28;20038;-72
2022/01/19 06:35:21;;;;;;;6.97;4.85;;;;;;;2.84;100.00;102440.59;5016514;28;20049;-71
2022/01/19 06:37:48;;;;;;;3.80;3.40;;;;;;;2.87;100.00;102442.25;5014890;28;20049;-75
2022/01/19 06:40:16;;;;;;;7.85;5.63;;;;;;;2.85;100.00;102439.69;5015934;28;20068;-73
2022/01/19 06:42:44;;;;;;;8.00;5.63;;;;;;;2.86;100.00;102435.34;5017250;28;20126;-73
2022/01/19 06:45:13;;;;;;;17.10;6.93;;;;;;;2.88;100.00;102441.38;5013116;28;20108;-72
2022/01/19 06:47:40;;;;;;;7.00;4.25;;;;;;;2.93;100.00;102442.13;5043130;28;20167;-73
2022/01/19 06:50:09;;;;;;;10.82;4.35;;;;;;;2.90;100.00;102437.00;5007230;28;20042;-72
2022/01/19 06:52:35;;;;;;;12.98;4.78;;;;;;;2.91;100.00;102428.34;5015345;28;20080;-72
2022/01/19 06:55:02;;;;;;;13.23;6.40;;;;;;;2.96;100.00;102423.88;5014525;28;20051;-74
2022/01/19 06:57:29;;;;;;;10.55;4.20;;;;;;;2.96;100.00;102414.34;5007359;28;20095;-72
2022/01/19 06:59:55;;;;;;;7.50;5.45;;;;;;;2.99;100.00;102419.50;5014450;28;20084;-74
2022/01/19 07:02:24;;;;;;;6.93;6.18;;;;;;;3.04;100.00;102417.63;5013964;28;20057;-75
2022/01/19 07:04:50;;;;;;;6.80;4.40;;;;;;;3.04;100.00;102414.19;5010820;28;20049;-72
2022/01/19 07:07:18;;;;;;;3.60;2.97;;;;;;;3.08;100.00;102405.47;5011296;28;20069;-72
2022/01/19 07:09:45;;;;;;;8.05;5.07;;;;;;;3.06;99.96;102402.03;5014798;28;20045;-72
2022/01/19 07:12:12;;;;;;;5.95;4.68;;;;;;;3.03;100.00;102394.31;5012824;28;21693;-72
2022/01/19 07:14:39;;;;;;;8.07;5.22;;;;;;;3.04;100.00;102388.25;5016856;28;20049;-73
2022/01/19 07:17:06;;;;;;;5.70;2.95;;;;;;;3.13;99.67;102377.66;5016563;28;20064;-73
2022/01/19 07:19:34;;;;;;;9.38;5.80;;;;;;;3.13;99.41;102373.28;5019621;28;20060;-74
2022/01/19 07:22:02;;;;;;;6.97;4.22;;;;;;;3.17;99.63;102370.59;5020443;28;20141;-73
2022/01/19 07:24:28;;;;;;;9.10;4.72;;;;;;;3.23;99.02;102365.28;5020541;28;20051;-72
2022/01/19 07:26:55;;;;;;;5.72;4.13;;;;;;;3.25;98.77;102370.44;5020867;28;20037;-73
2022/01/19 07:29:22;;;;;;;6.53;4.18;;;;;;;3.30;98.28;102366.84;5019843;28;20038;-72
2022/01/19 07:31:48;;;;;;;8.05;5.50;;;;;;;3.28;98.18;102373.81;5022503;28;20045;-71
2022/01/19 07:34:15;;;;;;;9.95;5.50;;;;;;;3.34;97.72;102368.47;5053807;28;20049;-74
2022/01/19 07:36:43;;;;;;;8.57;5.72;;;;;;;3.34;97.35;102368.47;5023514;28;20046;-73
2022/01/19 07:39:09;;;;;;;8.95;5.15;;;;;;;3.32;97.81;102367.63;5023501;28;20049;-74
2022/01/19 07:41:38;;;;;;;4.32;3.22;;;;;;;3.37;97.50;102363.19;5030896;28;20092;-73
2022/01/19 07:44:05;;;;;;;8.45;4.07;;;;;;;3.41;96.87;102359.63;5035964;28;20117;-72
2022/01/19 07:46:32;;;;;;;6.32;4.38;;;;;;;3.39;96.42;102358.84;5045319;28;20041;-72
2022/01/19 07:48:58;;;;;;;14.60;4.40;;;;;;;3.40;97.37;102359.66;5025698;28;20049;-74
2022/01/19 07:51:25;;;;;;;5.28;4.00;;;;;;;3.40;96.85;102357.94;5021306;28;20103;-74
2022/01/19 07:53:53;;;;;;;6.85;5.10;;;;;;;3.41;96.23;102357.03;5021397;28;20046;-72
2022/01/19 07:56:19;;;;;;;6.95;4.65;;;;;;;3.44;95.87;102359.56;5022427;28;20056;-73
2022/01/19 07:58:46;;;;;;;7.88;5.68;;;;;;;3.43;96.46;102355.25;5037363;28;20053;-73
2022/01/19 08:01:13;;;;;;;8.02;5.10;;;;;;;3.45;96.49;102348.28;5031299;28;20048;-74
2022/01/19 08:03:40;;;;;;;8.38;4.20;;;;;;;3.50;96.32;102359.41;5024036;28;20045;-72
2022/01/19 08:06:06;;;;;;;5.57;4.30;;;;;;;3.50;96.25;102355.97;5018870;28;20057;-74
2022/01/19 08:08:35;;;;;;;7.53;5.70;;;;;;;3.51;96.06;102349.88;5020419;28;20049;-73
2022/01/19 08:11:03;;;;;;;9.18;3.25;;;;;;;3.57;94.91;102350.56;5019803;28;20113;-74
2022/01/19 08:13:30;;;;;;;4.20;3.63;;;;;;;3.62;94.83;102347.84;5017895;28;20046;-71
2022/01/19 08:15:57;;;;;;;5.93;4.55;;;;;;;3.63;94.53;102340.03;5025707;28;20056;-70
2022/01/19 08:18:23;;;;;;;11.02;4.78;;;;;;;3.65;94.70;102348.63;5020131;28;20065;-72
2022/01/19 08:20:51;;;;;;;6.60;4.70;;;;;;;3.70;95.03;102349.38;5021577;28;20878;-71
2022/01/19 08:23:17;;;;;;;4.40;3.60;;;;;;;3.71;94.03;102339.81;5018782;28;20045;-71
2022/01/19 08:25:44;;;;;;;4.60;3.85;;;;;;;3.72;93.65;102334.59;5022234;28;20132;-73
2022/01/19 08:28:12;;;;;;;5.50;4.00;;;;;;;3.75;93.52;102324.09;5048422;28;20041;-73
2022/01/19 08:30:39;;;;;;;4.78;3.17;;;;;;;3.77;93.46;102332.72;5019783;28;20050;-72
2022/01/19 08:33:06;;;;;;;11.75;4.57;;;;;;;3.82;92.27;102328.25;5016726;28;20076;-72
2022/01/19 08:35:33;;;;;;;10.80;4.72;;;;;;;3.85;92.52;102328.19;5017120;28;20049;-71
2022/01/19 08:38:52;;;;;;;8.73;5.30;;;;;;;3.84;91.64;102313.47;5055834;23;20507;-71
2022/01/19 08:41:21;;;;;;;6.63;4.53;;;;;;;3.94;92.10;102312.34;4966608;28;20101;-71
2022/01/19 08:43:49;;;;;;;11.82;4.45;;;;;;;3.98;91.60;102314.81;4981933;28;20062;-72
2022/01/19 08:46:16;;;;;;;6.38;4.53;;;;;;;4.03;91.28;102314.69;4983044;28;20128;-73
2022/01/19 08:48:42;;;;;;;5.70;4.28;;;;;;;4.06;91.45;102319.81;4979849;28;20046;-72
2022/01/19 08:51:09;;;;;;;7.75;6.00;;;;;;;4.06;91.30;102299.84;4981775;28;20061;-71
2022/01/19 08:53:36;;;;;;;9.07;5.45;;;;;;;4.10;91.01;102303.22;4979027;28;20051;-72
2022/01/19 08:56:02;;;;;;;10.88;5.43;;;;;;;4.14;91.19;102302.25;4980544;28;20050;-73
2022/01/19 08:58:29;;;;;;;7.35;5.22;;;;;;;4.15;91.19;102298.72;4979867;28;20042;-72
2022/01/19 09:00:57;;;;;;;8.13;5.20;;;;;;;4.19;90.70;102295.16;4978227;28;20146;-72
2022/01/19 09:03:23;;;;;;;7.82;4.72;;;;;;;4.25;90.15;102289.78;4976877;28;20138;-72
2022/01/19 09:05:50;;;;;;;9.30;5.97;;;;;;;4.29;90.36;102286.19;4981865;28;20070;-69
2022/01/19 09:08:16;;;;;;;9.20;5.47;;;;;;;4.32;89.52;102278.28;4971357;28;20042;-71
2022/01/19 09:10:45;;;;;;;12.70;6.32;;;;;;;4.38;89.96;102275.53;4982824;28;20047;-73
2022/01/19 09:13:12;;;;;;;9.10;4.45;;;;;;;4.43;89.69;102284.88;4984658;28;20042;-72
2022/01/19 09:15:38;;;;;;;6.25;3.63;;;;;;;4.47;89.48;102277.88;4982405;28;20046;-73
2022/01/19 09:18:06;;;;;;;10.02;5.30;;;;;;;4.50;89.14;102282.97;4998530;28;20061;-72
2022/01/19 09:20:33;;;;;;;9.77;5.80;;;;;;;4.50;89.22;102280.34;4981444;28;20054;-73
2022/01/19 09:23:05;;;;;;;8.63;5.82;;;;;;;4.38;89.94;102265.13;4984123;28;20050;-71
2022/01/19 09:25:32;;;;;;;6.30;4.25;;;;;;;4.44;89.35;102272.75;4981838;28;20118;-73
2022/01/19 09:27:59;;;;;;;8.73;4.80;;;;;;;4.43;89.42;102271.03;4984257;28;20557;-72
2022/01/19 09:30:25;;;;;;;8.52;4.78;;;;;;;4.45;89.19;102271.84;4982771;28;20133;-74
2022/01/19 09:32:56;;;;;;;6.15;4.47;;;;;;;4.45;89.45;102262.28;4983824;28;20046;-74
2022/01/19 09:35:26;;;;;;;7.38;5.35;;;;;;;4.52;89.68;102265.56;4981904;28;20110;-73
2022/01/19 09:37:53;;;;;;;8.98;6.38;;;;;;;4.54;88.39;102246.41;4983947;28;20062;-72
2022/01/19 09:40:20;;;;;;;7.78;4.47;;;;;;;4.52;88.62;102242.13;4982242;28;20444;-72
2022/01/19 09:42:47;;;;;;;10.82;5.05;;;;;;;4.50;88.39;102234.38;4979226;28;20141;-74
2022/01/19 09:45:13;;;;;;;5.13;3.47;;;;;;;4.53;88.84;102236.03;4983330;28;20061;-72
2022/01/19 09:47:40;;;;;;;7.13;5.28;;;;;;;4.56;88.61;102230.72;4983239;28;20045;-73
2022/01/19 09:50:07;;;;;;;7.88;4.28;;;;;;;4.60;87.97;102238.38;4978254;28;20110;-72
2022/01/19 09:52:39;;;;;;;16.73;4.05;;;;;;;4.59;88.28;102228.03;4984832;28;20053;-73
2022/01/19 09:55:06;;;;;;;6.75;3.90;;;;;;;4.62;87.10;102223.59;4982861;28;20085;-72
2022/01/19 09:57:33;;;;;;;7.65;5.32;;;;;;;4.71;87.79;102219.84;4982603;28;20133;-73
2022/01/19 10:00:00;;;;;;;7.35;4.22;;;;;;;4.79;88.32;102222.16;4982104;28;20115;-72
2022/01/19 10:02:26;;;;;;;8.15;4.60;;;;;;;4.81;87.26;102204.72;4981353;28;20129;-72
2022/01/19 10:04:53;;;;;;;8.55;5.05;;;;;;;4.88;87.59;102215.81;4984538;28;20061;-75
2022/01/19 10:07:21;;;;;;;10.40;3.85;;;;;;;4.87;87.25;102209.75;4981928;28;20093;-72
2022/01/19 10:09:54;;;;;;;9.15;6.00;;;;;;;4.87;87.30;102201.06;5009063;28;20153;-73
2022/01/19 10:18:10;;;;;;;1.90;1.55;;;;;;;4.99;85.32;102209.34;4983016;28;20128;-74
2022/01/19 10:20:37;;;;;;;15.10;5.20;;;;;;;5.03;86.14;102197.94;4983342;28;20060;-73
2022/01/19 10:23:03;;;;;;;6.35;4.95;;;;;;;5.07;86.52;102207.31;4980108;28;20045;-73
2022/01/19 10:25:49;;;;;;;13.55;5.82;;;;;;;5.07;86.85;102206.50;4980668;28;20078;-72
2022/01/19 10:28:19;;;;;;;5.32;4.47;;;;;;;5.01;85.83;102198.84;4975793;28;20042;-73
2022/01/19 10:30:47;;;;;;;6.03;4.68;;;;;;;4.98;87.06;102186.81;4980606;28;20077;-71
2022/01/19 10:33:17;;;;;;;8.02;4.78;;;;;;;4.91;86.64;102180.09;4982161;28;20066;-74
2022/01/19 10:35:46;;;;;;;9.60;4.03;;;;;;;4.81;87.03;102178.69;4981335;28;20534;-73
2022/01/19 10:38:16;;;;;;;5.65;3.83;;;;;;;4.86;87.18;102186.34;4977639;28;20061;-73
2022/01/19 10:40:45;;;;;;;7.32;4.65;;;;;;;4.85;86.88;102176.84;4981000;28;20054;-72
2022/01/19 10:43:30;;;;;;;6.20;3.85;;;;;;;4.86;87.25;102173.34;4980478;28;20042;-73
2022/01/19 10:45:58;;;;;;;9.02;5.10;;;;;;;4.86;87.31;102166.41;4982983;28;20039;-74
2022/01/19 10:48:37;;;;;;;9.18;4.57;;;;;;;4.94;86.99;102161.78;4978813;28;20046;-72
2022/01/19 10:51:08;;;;;;;6.25;3.45;;;;;;;4.97;87.40;102166.88;4983828;28;20046;-72
2022/01/19 10:53:34;;;;;;;5.43;4.18;;;;;;;4.96;87.04;102156.50;4978946;28;20093;-73
2022/01/19 10:56:05;;;;;;;7.25;4.75;;;;;;;4.89;87.04;102162.84;4982101;28;20072;-73
2022/01/19 10:58:34;;;;;;;6.28;3.58;;;;;;;4.87;87.42;102154.22;4980865;28;20046;-73
2022/01/19 11:01:00;;;;;;;9.10;5.47;;;;;;;4.83;87.73;102161.28;4977039;28;20061;-73
2022/01/19 11:03:28;;;;;;;6.20;4.53;;;;;;;4.86;87.92;102150.78;4996664;28;20047;-73
2022/01/19 11:05:57;;;;;;;7.75;4.53;;;;;;;4.84;87.16;102152.56;4977964;28;20089;-68
2022/01/19 11:08:25;;;;;;;3.78;3.03;;;;;;;4.79;87.39;102143.22;4969714;28;20043;-73
2022/01/19 11:10:53;;;;;;;6.03;4.75;;;;;;;4.81;87.45;102131.84;4974560;28;20034;-73
2022/01/19 11:13:28;;;;;;;6.80;4.15;;;;;;;4.89;87.79;102134.19;4975768;28;20040;-72
2022/01/19 11:15:57;;;;;;;8.00;5.45;;;;;;;4.97;86.16;102121.75;4978635;28;20083;-72
2022/01/19 11:18:25;;;;;;;6.18;4.40;;;;;;;4.96;86.19;102115.72;4975609;28;20208;-74
2022/01/19 11:20:53;;;;;;;7.57;5.45;;;;;;;5.01;86.06;102103.38;4980234;28;20046;-73
2022/01/19 11:23:27;;;;;;;7.78;4.68;;;;;;;5.01;85.95;102102.50;4973861;28;20047;-70
2022/01/19 11:25:59;;;;;;;5.93;3.05;;;;;;;4.98;86.68;102106.06;4978496;28;20057;-71
2022/01/19 11:28:28;;;;;;;6.45;4.45;;;;;;;4.96;87.07;102105.31;4982569;28;20050;-72
2022/01/19 11:30:56;;;;;;;6.85;5.00;;;;;;;5.00;85.99;102101.69;4980503;28;20082;-71
2022/01/19 11:33:25;;;;;;;9.68;5.05;;;;;;;5.00;86.54;102109.50;4980612;28;20113;-73
2022/01/19 11:35:54;;;;;;;9.45;4.65;;;;;;;4.95;86.21;102106.22;4980860;28;20046;-70
2022/01/19 11:38:31;;;;;;;7.53;5.10;;;;;;;4.85;87.15;102089.19;4974157;28;20047;-71
2022/01/19 11:40:58;;;;;;;12.57;6.20;;;;;;;4.85;87.19;102083.13;4978393;28;20055;-71
2022/01/19 11:43:29;;;;;;;8.27;4.43;;;;;;;4.87;87.36;102079.59;4983069;28;20050;-70
2022/01/19 11:45:57;;;;;;;6.28;4.45;;;;;;;4.87;86.60;102070.91;4974445;28;20053;-72
2022/01/19 11:48:25;;;;;;;6.45;4.00;;;;;;;4.81;87.50;102069.38;4973996;28;20523;-73
2022/01/19 11:50:54;;;;;;;10.32;5.05;;;;;;;4.81;87.31;102064.16;4980902;28;20050;-70
2022/01/19 11:53:21;;;;;;;11.93;6.88;;;;;;;4.82;87.92;102059.81;4974068;28;20120;-73
2022/01/19 11:56:03;;;;;;;8.00;5.43;;;;;;;4.75;87.95;102050.53;4987235;28;20054;-71
2022/01/19 11:58:35;;;;;;;11.23;4.45;;;;;;;4.80;88.46;102056.41;4976952;28;20050;-73
2022/01/19 12:01:20;;;;;;;3.95;3.17;;;;;;;4.78;88.22;102074.69;4981934;28;20108;-73
2022/01/19 12:03:47;;;;;;;7.95;3.60;;;;;;;4.77;87.97;102052.16;4973770;28;20053;-72
2022/01/19 12:06:29;;;;;;;5.35;3.17;;;;;;;4.75;87.73;102043.56;4982244;28;20110;-74
2022/01/19 12:08:57;;;;;;;9.50;5.00;;;;;;;4.78;88.06;102037.38;4991780;28;20074;-72
2022/01/19 12:11:24;;;;;;;7.03;5.05;;;;;;;4.77;88.53;102036.56;4979760;28;20141;-73
2022/01/19 12:14:07;;;;;;;5.82;4.32;;;;;;;4.83;87.97;102031.13;4978519;28;20088;-72
2022/01/19 12:16:51;;;;;;;7.03;4.70;;;;;;;4.83;87.62;102030.28;4982752;28;20137;-72
2022/01/19 12:19:23;;;;;;;5.65;4.15;;;;;;;4.77;88.48;102020.06;4979799;28;20045;-72
2022/01/19 12:21:56;;;;;;;7.00;5.13;;;;;;;4.73;88.38;101998.50;4982384;28;20057;-73
2022/01/19 12:24:26;;;;;;;7.90;5.32;;;;;;;4.69;88.30;101995.22;4978821;28;20435;-73
2022/01/19 12:27:03;;;;;;;8.45;5.00;;;;;;;4.72;89.21;102013.34;4984549;28;20405;-72
2022/01/19 12:29:42;;;;;;;7.43;5.07;;;;;;;4.74;88.86;102009.78;4977753;28;20047;-72
2022/01/19 12:32:50;;;;;;;4.03;3.15;;;;;;;4.73;88.50;102006.31;4997853;28;20050;-74
2022/01/19 12:35:35;;;;;;;14.20;6.05;;;;;;;4.65;89.44;101989.28;4972567;28;20054;-73
2022/01/19 12:38:08;;;;;;;8.80;5.78;;;;;;;4.66;90.03;101987.50;4980937;28;20046;-72
2022/01/19 12:40:46;;;;;;;4.05;3.20;;;;;;;4.66;90.57;101987.50;4980041;28;20069;-72
2022/01/19 12:43:28;;;;;;;9.30;5.47;;;;;;;4.63;89.78;101980.66;4978160;28;20046;-73
2022/01/19 12:45:55;;;;;;;11.88;5.25;;;;;;;4.64;89.91;101981.53;4979132;28;20057;-72
2022/01/19 12:48:47;;;;;;;6.75;4.65;;;;;;;4.67;89.97;101973.59;4995187;28;20050;-73
2022/01/19 12:51:35;;;;;;;7.68;5.38;;;;;;;4.68;90.72;101967.50;4998317;28;20045;-72
2022/01/19 12:54:01;;;;;;;4.38;3.47;;;;;;;4.69;90.16;101966.59;5000409;28;20027;-72
2022/01/19 12:56:28;;;;;;;6.45;4.90;;;;;;;4.68;90.71;101967.50;5000052;28;20034;-72
2022/01/19 12:59:02;;;;;;;8.38;4.57;;;;;;;4.70;91.34;101963.94;4985496;28;20065;-72
2022/01/19 13:01:30;;;;;;;6.03;4.32;;;;;;;4.73;91.26;101950.81;4983745;28;20052;-73